Time;durP1;ratioP1;P1;durP2;ratioP2;P2;SDS_P1;SDS_P2;PMS_P1;PMS_P2;Temp;Humidity;BMP_temperature;BMP_pressure;BME280_temperature;BME280_humidity;BME280_pressure;Samples;Min_cycle;Max_cycle;Signal;HPM_P1;HPM_P2
2022/09/28 00:01:29;;;;;;;2.22;1.50;;;17.60;1.00;;;;;;5084759;28;20032;-48
2022/09/28 00:03:57;;;;;;;3.10;1.30;;;17.60;1.00;;;;;;5075647;28;20032;-50
2022/09/28 00:06:24;;;;;;;3.92;1.60;;;17.60;1.00;;;;;;5087828;28;20074;-48
2022/09/28 00:08:50;;;;;;;2.83;1.52;;;17.60;1.00;;;;;;5093965;28;20493;-48
2022/09/28 00:11:17;;;;;;;2.58;1.70;;;17.60;1.00;;;;;;5089353;28;20033;-47
2022/09/28 00:13:44;;;;;;;2.53;1.45;;;17.50;1.00;;;;;;5082687;28;20090;-48
2022/09/28 00:16:16;;;;;;;2.55;1.35;;;17.50;1.00;;;;;;5086117;28;20127;-52
2022/09/28 00:18:42;;;;;;;2.88;1.60;;;17.60;1.00;;;;;;5109609;28;20362;-49
2022/09/28 00:21:17;;;;;;;2.72;1.50;;;17.50;1.00;;;;;;5085984;28;20089;-47
2022/09/28 00:26:30;;;;;;;3.03;1.58;;;17.50;1.00;;;;;;5079576;28;20192;-47
2022/09/28 00:28:58;;;;;;;1.95;1.20;;;17.50;1.00;;;;;;5106308;28;20040;-49
2022/09/28 00:31:25;;;;;;;2.45;1.50;;;17.50;1.00;;;;;;5091649;28;20035;-49
2022/09/28 00:33:51;;;;;;;4.35;1.88;;;17.50;1.00;;;;;;5083977;28;20040;-46
2022/09/28 00:36:17;;;;;;;4.20;1.52;;;17.50;1.00;;;;;;5078902;28;20016;-48
2022/09/28 00:38:43;;;;;;;2.78;1.25;;;17.50;1.00;;;;;;5092864;28;20032;-49
2022/09/28 00:41:12;;;;;;;3.13;0.90;;;17.50;1.00;;;;;;5088564;28;20046;-49
2022/09/28 00:43:38;;;;;;;2.15;1.00;;;17.50;1.00;;;;;;5086558;28;20028;-47
2022/09/28 00:46:09;;;;;;;3.30;1.20;;;17.50;1.00;;;;;;5090162;28;20490;-47
2022/09/28 00:48:38;;;;;;;2.65;1.33;;;17.40;1.00;;;;;;5093283;28;20040;-47
2022/09/28 00:51:10;;;;;;;1.20;0.80;;;17.40;1.00;;;;;;5081884;28;20134;-47
2022/09/28 00:53:37;;;;;;;1.35;1.00;;;17.40;1.00;;;;;;5092888;28;20099;-52
2022/09/28 00:56:10;;;;;;;1.23;0.93;;;17.40;1.00;;;;;;5105627;28;20354;-47
2022/09/28 00:58:41;;;;;;;2.97;1.30;;;17.40;1.00;;;;;;5092960;28;20074;-48
2022/09/28 01:01:07;;;;;;;1.63;0.60;;;17.30;1.00;;;;;;5072125;28;20409;-49
2022/09/28 01:03:33;;;;;;;2.13;0.90;;;17.30;1.00;;;;;;5078484;28;20036;-47
2022/09/28 01:06:02;;;;;;;2.72;0.95;;;17.30;1.00;;;;;;5081038;28;20363;-48
2022/09/28 01:08:30;;;;;;;1.73;1.00;;;17.40;1.00;;;;;;5087752;28;20469;-50
2022/09/28 01:10:58;;;;;;;1.27;1.13;;;17.40;1.00;;;;;;5090344;28;20040;-51
2022/09/28 01:13:23;;;;;;;0.90;0.80;;;17.30;1.00;;;;;;5092402;28;20039;-51
2022/09/28 01:16:03;;;;;;;1.23;0.85;;;17.30;1.00;;;;;;5085865;28;20028;-46
2022/09/28 01:18:44;;;;;;;2.30;1.10;;;17.30;1.00;;;;;;5090615;28;20441;-47
2022/09/28 01:21:19;;;;;;;2.78;1.30;;;17.30;1.00;;;;;;5091557;28;20390;-47
2022/09/28 01:24:00;;;;;;;5.63;2.38;;;17.30;1.00;;;;;;5105725;28;20008;-48
2022/09/28 01:26:32;;;;;;;4.40;2.97;;;17.30;1.00;;;;;;5082430;28;20161;-47
2022/09/28 01:29:29;;;;;;;5.82;4.95;;;17.30;1.00;;;;;;5086973;28;20040;-49
2022/09/28 01:32:37;;;;;;;7.63;5.63;;;17.30;1.00;;;;;;5078037;28;20054;-50
2022/09/28 01:35:18;;;;;;;11.52;8.40;;;17.30;1.00;;;;;;5084141;28;20036;-48
2022/09/28 01:37:51;;;;;;;11.00;8.57;;;17.40;1.00;;;;;;5079561;28;20107;-50
2022/09/28 01:40:20;;;;;;;14.00;9.40;;;17.30;1.00;;;;;;5089814;28;20096;-48
2022/09/28 01:42:52;;;;;;;12.95;9.80;;;17.30;1.00;;;;;;5079335;28;20082;-48
2022/09/28 01:45:24;;;;;;;13.27;10.98;;;17.30;1.00;;;;;;5091219;28;20153;-47
2022/09/28 01:47:55;;;;;;;15.25;11.57;;;17.30;1.00;;;;;;5090151;28;20032;-47
2022/09/28 01:50:24;;;;;;;17.40;12.98;;;17.30;1.00;;;;;;5089003;28;20561;-49
2022/09/28 01:53:02;;;;;;;16.55;12.57;;;17.30;1.00;;;;;;5081329;28;20024;-48
2022/09/28 01:55:32;;;;;;;13.13;11.63;;;17.20;1.00;;;;;;5084410;28;20032;-51
2022/09/28 01:58:21;;;;;;;15.75;12.93;;;17.20;1.00;;;;;;5083729;28;20020;-52
2022/09/28 02:00:51;;;;;;;13.93;12.35;;;17.10;1.00;;;;;;5087229;28;20047;-47
2022/09/28 02:03:22;;;;;;;13.27;10.82;;;17.20;1.00;;;;;;5090435;28;20072;-49
2022/09/28 02:05:55;;;;;;;13.10;10.95;;;17.20;1.00;;;;;;5090326;28;20400;-49
2022/09/28 02:08:29;;;;;;;14.75;10.38;;;17.20;1.00;;;;;;5084273;28;20059;-50
2022/09/28 02:11:13;;;;;;;12.25;10.95;;;17.20;1.00;;;;;;5082863;28;20028;-48
2022/09/28 02:13:49;;;;;;;17.73;11.63;;;17.10;1.00;;;;;;5084185;28;20032;-47
2022/09/28 02:16:38;;;;;;;11.90;10.70;;;17.10;1.00;;;;;;5090101;28;20112;-49
2022/09/28 02:19:06;;;;;;;12.43;11.10;;;17.10;1.00;;;;;;5087387;28;20085;-48
2022/09/28 02:21:37;;;;;;;12.48;11.18;;;17.10;1.00;;;;;;5089172;28;20040;-47
2022/09/28 02:24:08;;;;;;;15.30;11.65;;;17.10;1.00;;;;;;5091111;28;20119;-47
2022/09/28 02:26:40;;;;;;;14.27;12.23;;;17.10;1.00;;;;;;5090166;28;20032;-46
2022/09/28 02:29:07;;;;;;;14.50;12.02;;;17.10;1.00;;;;;;5090721;28;20150;-50
2022/09/28 02:31:33;;;;;;;13.07;11.20;;;17.10;1.00;;;;;;5089853;28;20133;-47
2022/09/28 02:33:59;;;;;;;14.25;12.27;;;17.10;1.00;;;;;;5091365;28;20195;-46
2022/09/28 02:36:26;;;;;;;13.95;11.50;;;17.00;1.00;;;;;;5084130;28;20407;-47
2022/09/28 02:38:52;;;;;;;14.05;12.27;;;17.00;1.00;;;;;;5089179;28;20365;-46
2022/09/28 02:41:18;;;;;;;13.50;11.85;;;17.00;1.00;;;;;;5088310;28;20036;-49
2022/09/28 02:44:15;;;;;;;13.48;12.13;;;17.00;1.00;;;;;;5071240;28;20102;-49
2022/09/28 02:46:54;;;;;;;12.90;11.50;;;17.00;1.00;;;;;;5077178;28;20056;-47
2022/09/28 02:49:35;;;;;;;15.23;12.43;;;16.90;1.00;;;;;;5091207;28;20047;-48
2022/09/28 02:52:35;;;;;;;16.88;11.95;;;16.90;1.00;;;;;;5083128;28;20028;-47
2022/09/28 02:55:17;;;;;;;14.40;12.23;;;16.90;1.00;;;;;;5090048;28;20047;-49
2022/09/28 02:58:13;;;;;;;13.20;11.80;;;17.00;1.00;;;;;;5090265;28;20036;-48
2022/09/28 03:00:42;;;;;;;;;;;16.90;1.00;;;;;;5092135;28;20062;-46
2022/09/28 03:03:30;;;;;;;16.73;12.10;;;16.80;1.00;;;;;;5094133;28;20274;-47
2022/09/28 03:06:25;;;;;;;13.57;11.00;;;16.80;1.00;;;;;;5095109;28;20061;-47
2022/09/28 03:09:06;;;;;;;13.02;10.73;;;16.70;1.00;;;;;;5082754;28;20180;-49
2022/09/28 03:11:39;;;;;;;15.13;10.85;;;16.80;1.00;;;;;;5093395;28;20062;-47
2022/09/28 03:14:05;;;;;;;12.02;10.48;;;16.70;1.00;;;;;;5094807;28;20012;-47
2022/09/28 03:16:31;;;;;;;11.43;9.98;;;16.80;1.00;;;;;;5093591;28;20099;-47
2022/09/28 03:18:57;;;;;;;14.85;10.02;;;16.60;1.00;;;;;;5094719;28;20096;-50
2022/09/28 03:21:22;;;;;;;11.88;9.88;;;16.50;1.00;;;;;;5093915;28;20027;-51
2022/09/28 03:23:48;;;;;;;11.30;9.95;;;16.60;1.00;;;;;;5094294;28;20024;-48
2022/09/28 03:26:15;;;;;;;11.25;9.30;;;16.50;1.00;;;;;;5108841;28;20043;-49
2022/09/28 03:28:41;;;;;;;9.70;8.20;;;16.60;1.00;;;;;;5105321;28;20048;-50
2022/09/28 03:31:07;;;;;;;10.40;8.93;;;16.60;1.00;;;;;;5094469;28;20051;-52
2022/09/28 03:33:33;;;;;;;10.38;8.73;;;16.60;1.00;;;;;;5092662;28;20512;-46
2022/09/28 03:35:59;;;;;;;9.68;8.68;;;16.50;1.00;;;;;;5093300;28;20039;-46
2022/09/28 03:38:24;;;;;;;10.55;8.70;;;16.50;1.00;;;;;;5089650;28;20372;-47
2022/09/28 03:40:56;;;;;;;11.07;8.27;;;16.60;1.00;;;;;;5090113;28;20024;-52
2022/09/28 03:43:23;;;;;;;9.27;8.27;;;16.50;1.00;;;;;;5093484;28;20012;-47
2022/09/28 03:45:57;;;;;;;9.93;8.93;;;16.50;1.00;;;;;;5093454;28;20052;-47
2022/09/28 03:48:24;;;;;;;14.52;9.50;;;16.50;1.00;;;;;;5092023;28;20016;-47
2022/09/28 03:50:57;;;;;;;11.05;9.15;;;16.40;1.00;;;;;;5093506;28;20036;-47
2022/09/28 03:53:23;;;;;;;11.52;9.55;;;16.50;1.00;;;;;;5089371;28;20044;-47
2022/09/28 03:55:49;;;;;;;10.95;9.73;;;16.40;1.00;;;;;;5093835;28;20067;-48
2022/09/28 03:58:16;;;;;;;11.60;9.75;;;16.40;1.00;;;;;;5089209;28;20020;-49
2022/09/28 04:00:41;;;;;;;14.40;9.68;;;16.30;1.00;;;;;;5093517;28;20469;-51
2022/09/28 04:03:08;;;;;;;11.90;10.68;;;16.40;1.00;;;;;;5092890;28;20039;-47
2022/09/28 04:05:33;;;;;;;13.77;10.90;;;16.40;1.00;;;;;;5093652;28;20020;-47
2022/09/28 04:07:59;;;;;;;11.88;10.15;;;16.40;1.00;;;;;;5092971;28;20111;-50
2022/09/28 04:10:25;;;;;;;12.27;11.00;;;16.50;1.00;;;;;;5093305;28;20028;-47
2022/09/28 04:12:57;;;;;;;13.68;11.07;;;16.50;1.00;;;;;;5091848;28;20098;-49
2022/09/28 04:15:25;;;;;;;13.75;10.95;;;16.50;1.00;;;;;;5092167;28;20032;-47
2022/09/28 04:17:51;;;;;;;13.38;11.77;;;16.40;1.00;;;;;;5092602;28;20089;-47
2022/09/28 04:20:17;;;;;;;13.23;11.07;;;16.40;1.00;;;;;;5093711;28;20032;-48
2022/09/28 04:22:43;;;;;;;13.27;11.77;;;16.50;1.00;;;;;;5092649;28;20028;-48
2022/09/28 04:25:09;;;;;;;13.52;11.48;;;16.40;1.00;;;;;;5093507;28;20031;-46
2022/09/28 04:30:18;;;;;;;16.03;12.63;;;16.20;1.00;;;;;;5088865;28;20054;-49
2022/09/28 04:32:47;;;;;;;14.07;12.55;;;16.20;1.00;;;;;;5088205;28;20024;-47
2022/09/28 04:35:13;;;;;;;12.80;10.85;;;16.30;1.00;;;;;;5082670;28;20160;-51
2022/09/28 04:37:39;;;;;;;14.32;11.57;;;16.30;1.00;;;;;;5085747;28;20024;-51
2022/09/28 04:40:05;;;;;;;15.35;12.27;;;16.30;1.00;;;;;;5092829;28;20078;-51
2022/09/28 04:42:31;;;;;;;12.82;11.52;;;16.30;1.00;;;;;;5092000;28;20036;-51
2022/09/28 04:44:57;;;;;;;14.07;12.57;;;16.20;1.00;;;;;;5093177;28;20052;-49
2022/09/28 04:47:24;;;;;;;13.10;11.32;;;16.30;1.00;;;;;;5091897;28;20034;-46
2022/09/28 04:49:50;;;;;;;12.82;11.35;;;16.20;1.00;;;;;;5092628;28;20043;-51
2022/09/28 04:52:15;;;;;;;12.30;11.10;;;16.30;1.00;;;;;;5092192;28;20016;-48
2022/09/28 04:54:41;;;;;;;12.77;11.48;;;16.30;1.00;;;;;;5092916;28;20028;-49
2022/09/28 04:57:07;;;;;;;13.77;10.98;;;16.30;1.00;;;;;;5091874;28;20535;-48
2022/09/28 04:59:32;;;;;;;12.50;11.20;;;16.30;1.00;;;;;;5089655;28;20028;-46
2022/09/28 05:01:58;;;;;;;11.90;10.23;;;16.20;1.00;;;;;;5085000;28;20028;-46
2022/09/28 05:04:24;;;;;;;14.93;11.60;;;16.20;1.00;;;;;;5093030;28;20024;-46
2022/09/28 05:06:49;;;;;;;12.15;10.65;;;16.20;1.00;;;;;;5091526;28;20028;-49
2022/09/28 05:09:15;;;;;;;11.88;10.77;;;16.20;1.00;;;;;;5078820;28;20048;-49
2022/09/28 05:11:40;;;;;;;10.52;9.48;;;16.30;1.00;;;;;;5079638;28;20020;-47
2022/09/28 05:14:06;;;;;;;10.55;9.45;;;16.30;1.00;;;;;;5092219;28;20019;-47
2022/09/28 05:16:32;;;;;;;9.77;8.88;;;16.20;1.00;;;;;;5092969;28;20031;-49
2022/09/28 05:18:59;;;;;;;11.95;9.32;;;16.30;1.00;;;;;;5078922;28;20029;-51
2022/09/28 05:21:26;;;;;;;10.65;9.65;;;16.30;1.00;;;;;;5090303;28;20046;-47
2022/09/28 05:23:54;;;;;;;10.45;9.35;;;16.30;1.00;;;;;;5090359;28;20032;-47
2022/09/28 05:26:20;;;;;;;9.32;8.43;;;16.30;1.00;;;;;;5092072;28;20088;-48
2022/09/28 05:28:46;;;;;;;9.65;8.48;;;16.20;1.00;;;;;;5084635;28;20473;-48
2022/09/28 05:31:11;;;;;;;10.50;9.40;;;16.20;1.00;;;;;;5092265;28;20446;-50
2022/09/28 05:33:37;;;;;;;9.95;9.00;;;16.20;1.00;;;;;;5084473;28;20108;-50
2022/09/28 05:36:03;;;;;;;11.25;8.48;;;16.20;1.00;;;;;;5092094;28;20044;-47
2022/09/28 05:38:29;;;;;;;10.85;9.18;;;16.30;1.00;;;;;;5091087;28;20085;-46
2022/09/28 05:40:55;;;;;;;8.98;8.00;;;16.20;1.00;;;;;;5092104;28;20032;-49
2022/09/28 05:43:21;;;;;;;8.73;7.82;;;16.10;1.00;;;;;;5091154;28;20034;-47
2022/09/28 05:45:47;;;;;;;8.65;7.53;;;16.20;1.00;;;;;;5091896;28;20044;-46
2022/09/28 05:48:12;;;;;;;8.30;7.50;;;16.30;1.00;;;;;;5084371;28;20082;-48
2022/09/28 05:50:38;;;;;;;8.57;7.40;;;16.30;1.00;;;;;;5087056;28;20063;-47
2022/09/28 05:53:07;;;;;;;8.00;7.00;;;16.30;1.00;;;;;;5090922;28;20020;-49
2022/09/28 05:55:33;;;;;;;7.93;7.13;;;16.40;1.00;;;;;;5091936;28;20378;-47
2022/09/28 05:58:00;;;;;;;7.60;6.45;;;16.30;1.00;;;;;;5090760;28;20116;-50
2022/09/28 06:00:27;;;;;;;7.35;6.65;;;16.30;1.00;;;;;;5087326;28;20473;-47
2022/09/28 06:02:56;;;;;;;11.13;7.65;;;16.40;1.00;;;;;;5091922;28;20067;-47
2022/09/28 06:05:23;;;;;;;7.88;6.13;;;16.30;1.00;;;;;;5096316;28;20425;-47
2022/09/28 06:07:48;;;;;;;8.05;6.78;;;16.30;1.00;;;;;;5086779;28;20043;-48
2022/09/28 06:10:14;;;;;;;7.30;6.47;;;16.40;1.00;;;;;;5101902;28;20032;-47
2022/09/28 06:12:41;;;;;;;8.70;6.70;;;16.40;1.00;;;;;;5091657;28;20028;-50
2022/09/28 06:15:07;;;;;;;8.38;6.82;;;16.30;1.00;;;;;;5091161;28;20024;-51
2022/09/28 06:17:32;;;;;;;7.45;6.57;;;16.30;1.00;;;;;;5091839;28;20020;-48
2022/09/28 06:19:58;;;;;;;9.93;7.00;;;16.30;1.00;;;;;;5087003;28;20131;-49
2022/09/28 06:22:24;;;;;;;6.95;6.35;;;16.30;1.00;;;;;;5092119;28;20024;-46
2022/09/28 06:24:49;;;;;;;9.23;6.15;;;16.40;1.00;;;;;;5090434;28;20042;-47
2022/09/28 06:27:15;;;;;;;6.95;6.22;;;16.40;1.00;;;;;;5091519;28;20024;-47
2022/09/28 06:29:40;;;;;;;8.45;6.85;;;16.50;1.00;;;;;;5090498;28;20130;-47
2022/09/28 06:32:06;;;;;;;6.82;5.95;;;16.50;1.00;;;;;;5089263;28;20031;-47
2022/09/28 06:34:33;;;;;;;11.55;6.13;;;16.50;1.00;;;;;;5090095;28;20833;-45
2022/09/28 06:36:59;;;;;;;6.65;6.05;;;16.60;1.00;;;;;;5093945;28;20497;-46
2022/09/28 06:39:25;;;;;;;6.72;6.03;;;16.60;1.00;;;;;;5086202;28;20035;-46
2022/09/28 06:41:51;;;;;;;6.85;5.65;;;16.50;1.00;;;;;;5091759;28;20027;-44
2022/09/28 06:44:17;;;;;;;7.38;6.30;;;16.60;1.00;;;;;;5082226;28;20085;-47
2022/09/28 06:46:42;;;;;;;7.10;6.05;;;16.50;1.00;;;;;;5099512;28;20044;-44
2022/09/28 06:49:08;;;;;;;7.00;5.97;;;16.50;1.00;;;;;;5093473;28;20040;-44
2022/09/28 06:51:35;;;;;;;7.40;5.95;;;16.60;1.00;;;;;;5091732;28;20378;-44
2022/09/28 06:54:01;;;;;;;9.70;5.97;;;16.60;1.00;;;;;;5086971;28;20093;-46
2022/09/28 06:56:27;;;;;;;8.10;6.20;;;16.60;1.00;;;;;;5093994;28;20492;-46
2022/09/28 06:58:53;;;;;;;6.68;5.75;;;16.70;1.00;;;;;;5095139;28;20024;-45
2022/09/28 07:01:18;;;;;;;7.68;6.57;;;16.70;1.00;;;;;;5082654;28;20035;-44
2022/09/28 07:03:44;;;;;;;6.32;5.68;;;16.70;1.00;;;;;;5094989;28;20095;-47
2022/09/28 07:06:11;;;;;;;6.30;5.65;;;16.80;1.00;;;;;;5093914;28;20389;-47
2022/09/28 07:08:37;;;;;;;7.75;6.00;;;16.70;1.00;;;;;;5110284;28;20051;-45
2022/09/28 07:11:06;;;;;;;7.40;5.35;;;16.50;1.00;;;;;;5092672;28;20056;-48
2022/09/28 07:13:32;;;;;;;7.72;4.95;;;16.60;1.00;;;;;;5094636;28;20203;-46
2022/09/28 07:15:58;;;;;;;8.10;5.53;;;16.70;1.00;;;;;;5093965;28;20053;-48
2022/09/28 07:18:25;;;;;;;6.95;5.18;;;16.70;1.00;;;;;;5094790;28;20020;-45
2022/09/28 07:20:51;;;;;;;7.55;4.85;;;16.80;1.00;;;;;;5093445;28;20030;-49
2022/09/28 07:23:17;;;;;;;6.20;4.75;;;16.80;1.00;;;;;;5093492;28;20078;-51
2022/09/28 07:25:48;;;;;;;6.30;4.82;;;16.70;1.00;;;;;;5086603;28;20380;-46
2022/09/28 07:28:15;;;;;;;7.00;5.80;;;16.80;1.00;;;;;;5094632;28;20064;-48
2022/09/28 07:30:42;;;;;;;8.77;4.85;;;16.70;1.00;;;;;;5093011;28;20039;-48
2022/09/28 07:33:11;;;;;;;10.57;5.18;;;16.70;1.00;;;;;;5093706;28;20516;-45
2022/09/28 07:35:37;;;;;;;7.43;4.78;;;16.80;1.00;;;;;;5091622;28;20454;-49
2022/09/28 07:38:05;;;;;;;5.97;4.70;;;16.80;1.00;;;;;;5094318;28;20034;-44
2022/09/28 07:43:20;;;;;;;7.40;4.82;;;17.00;1.00;;;;;;5081922;28;20606;-44
2022/09/28 07:45:51;;;;;;;6.15;4.55;;;16.70;1.00;;;;;;5091079;28;20485;-47
2022/09/28 07:48:17;;;;;;;6.15;5.20;;;16.90;1.00;;;;;;5093075;28;20382;-47
2022/09/28 07:50:55;;;;;;;5.65;5.15;;;17.00;1.00;;;;;;5091773;28;20508;-50
2022/09/28 07:53:23;;;;;;;7.38;5.15;;;16.90;1.00;;;;;;5087716;28;20102;-47
2022/09/28 07:56:04;;;;;;;8.02;5.47;;;16.90;1.00;;;;;;5085513;28;20445;-46
2022/09/28 07:58:31;;;;;;;9.88;5.05;;;16.90;1.00;;;;;;5081392;28;20012;-48
2022/09/28 08:00:59;;;;;;;8.45;5.03;;;17.00;1.00;;;;;;5092713;28;20027;-45
2022/09/28 08:03:26;;;;;;;10.20;6.28;;;17.10;1.00;;;;;;5093707;28;20020;-48
2022/09/28 08:05:57;;;;;;;6.43;4.90;;;17.10;1.00;;;;;;5092707;28;20524;-50
2022/09/28 08:08:22;;;;;;;7.95;5.20;;;17.20;1.00;;;;;;5093807;28;20020;-52
2022/09/28 08:10:51;;;;;;;8.43;6.63;;;17.10;1.00;;;;;;5091835;28;20039;-46
2022/09/28 08:13:17;;;;;;;8.02;5.50;;;17.00;1.00;;;;;;5093765;28;20493;-51
2022/09/28 08:15:42;;;;;;;6.35;5.45;;;17.20;1.00;;;;;;5107970;28;20178;-47
2022/09/28 08:18:08;;;;;;;5.95;4.88;;;17.30;1.00;;;;;;5093701;28;20453;-47
2022/09/28 08:23:19;;;;;;;10.48;5.20;;;17.40;1.00;;;;;;5092682;28;20413;-50
2022/09/28 08:25:48;;;;;;;5.30;4.40;;;17.50;1.00;;;;;;5092110;28;20155;-47
2022/09/28 08:28:16;;;;;;;10.13;8.73;;;17.60;1.00;;;;;;5093301;28;20074;-46
2022/09/28 08:30:43;;;;;;;12.65;5.70;;;17.60;1.00;;;;;;5092099;28;20066;-46
2022/09/28 08:33:10;;;;;;;11.20;5.05;;;17.60;1.00;;;;;;5093431;28;20031;-48
2022/09/28 08:35:36;;;;;;;6.30;5.32;;;17.60;1.00;;;;;;5090333;28;20038;-50
2022/09/28 08:38:02;;;;;;;6.95;4.78;;;17.70;1.00;;;;;;5084115;28;20397;-51
2022/09/28 08:40:33;;;;;;;5.93;4.80;;;17.60;1.00;;;;;;5091789;28;20079;-51
2022/09/28 08:43:03;;;;;;;13.82;5.43;;;17.60;1.00;;;;;;5092954;28;20424;-50
2022/09/28 08:45:33;;;;;;;5.97;4.50;;;17.50;1.00;;;;;;5091928;28;20075;-49
2022/09/28 08:51:42;;;;;;;9.00;5.13;;;17.60;1.00;;;;;;5080269;28;20425;-49
2022/09/28 08:54:30;;;;;;;5.60;4.78;;;17.70;1.00;;;;;;5091959;28;20031;-50
2022/09/28 08:57:21;;;;;;;6.47;4.75;;;17.80;1.00;;;;;;5091376;28;20043;-49
2022/09/28 08:59:53;;;;;;;7.30;5.30;;;17.80;1.00;;;;;;5092386;28;20038;-49
2022/09/28 09:02:41;;;;;;;9.45;5.32;;;18.00;1.00;;;;;;5088687;28;20062;-47
2022/09/28 09:05:14;;;;;;;6.20;4.85;;;17.90;1.00;;;;;;5092961;28;20019;-49
2022/09/28 09:08:07;;;;;;;7.95;4.70;;;18.00;1.00;;;;;;5091731;28;20040;-49
2022/09/28 09:10:57;;;;;;;6.68;4.85;;;18.10;1.00;;;;;;5091399;28;20040;-51
2022/09/28 09:13:49;;;;;;;6.88;4.80;;;18.20;1.00;;;;;;5083420;28;20081;-49
2022/09/28 09:16:35;;;;;;;8.68;5.03;;;18.30;1.00;;;;;;5095158;28;20059;-49
2022/09/28 09:19:37;;;;;;;9.68;5.80;;;18.20;1.00;;;;;;5079514;28;20024;-48
2022/09/28 09:22:10;;;;;;;7.28;4.43;;;18.20;1.00;;;;;;5091326;28;20473;-46
2022/09/28 09:24:38;;;;;;;6.03;4.40;;;18.20;1.00;;;;;;5092375;28;20051;-49
2022/09/28 09:27:05;;;;;;;9.07;4.90;;;18.10;1.00;;;;;;5090916;28;20035;-51
2022/09/28 09:29:49;;;;;;;11.38;4.65;;;18.00;1.00;;;;;;5083730;28;20032;-51
2022/09/28 09:32:40;;;;;;;11.13;4.53;;;18.10;1.00;;;;;;5088746;28;20028;-49
2022/09/28 09:35:29;;;;;;;4.70;4.18;;;18.20;1.00;;;;;;5092071;28;20030;-49
2022/09/28 09:38:38;;;;;;;5.65;4.43;;;18.40;1.00;;;;;;5087094;28;20020;-52
2022/09/28 09:41:19;;;;;;;6.32;4.20;;;18.30;1.00;;;;;;5090332;28;20163;-51
2022/09/28 09:44:03;;;;;;;5.90;4.00;;;18.40;1.00;;;;;;5092238;28;20047;-48
2022/09/28 09:46:35;;;;;;;7.00;6.32;;;18.40;1.00;;;;;;5089203;28;20127;-51
2022/09/28 09:49:14;;;;;;;6.93;6.05;;;18.40;1.00;;;;;;5101366;28;20044;-51
2022/09/28 09:51:55;;;;;;;7.40;4.20;;;18.40;1.00;;;;;;5071882;28;20037;-51
2022/09/28 09:54:35;;;;;;;4.75;4.35;;;18.30;1.00;;;;;;5085965;28;20367;-48
2022/09/28 09:57:04;;;;;;;7.10;5.05;;;18.50;1.00;;;;;;5090956;28;20069;-54
2022/09/28 09:59:38;;;;;;;8.23;6.30;;;18.50;1.00;;;;;;5091673;28;20527;-50
2022/09/28 10:02:27;;;;;;;6.70;6.10;;;18.50;1.00;;;;;;5091988;28;20141;-47
2022/09/28 10:05:03;;;;;;;9.75;5.70;;;18.40;1.00;;;;;;5091788;28;20082;-46
2022/09/28 10:07:40;;;;;;;6.70;4.68;;;18.40;1.00;;;;;;5091741;28;20024;-51
2022/09/28 10:10:31;;;;;;;6.18;5.00;;;18.50;1.00;;;;;;5091552;28;20044;-50
2022/09/28 10:12:57;;;;;;;7.90;4.80;;;18.60;1.00;;;;;;5095679;28;20085;-50
2022/09/28 10:15:34;;;;;;;11.00;6.07;;;18.70;1.00;;;;;;5095676;28;20036;-50
2022/09/28 10:18:05;;;;;;;5.20;4.28;;;18.60;1.00;;;;;;5095727;28;20103;-49
2022/09/28 10:20:36;;;;;;;13.35;6.80;;;18.50;1.00;;;;;;5095931;28;20035;-49
2022/09/28 10:23:05;;;;;;;12.07;5.93;;;18.50;1.00;;;;;;5089831;28;20023;-46
2022/09/28 10:25:35;;;;;;;10.60;5.63;;;18.50;1.00;;;;;;5093137;28;20024;-48
2022/09/28 10:28:05;;;;;;;5.00;4.00;;;18.50;1.00;;;;;;5094075;28;20453;-51
2022/09/28 10:30:43;;;;;;;6.50;4.07;;;18.40;1.00;;;;;;5095518;28;20035;-60
2022/09/28 10:33:38;;;;;;;7.75;4.88;;;18.20;1.00;;;;;;5093242;28;20031;-63
2022/09/28 10:36:06;;;;;;;16.33;5.80;;;17.70;1.00;;;;;;5074689;28;20028;-61
2022/09/28 10:38:33;;;;;;;8.38;4.65;;;17.20;1.00;;;;;;5092369;28;20111;-49
2022/09/28 10:41:08;;;;;;;4.93;4.22;;;16.90;1.00;;;;;;5091460;28;20027;-52
2022/09/28 10:43:37;;;;;;;5.60;4.40;;;16.70;1.00;;;;;;5078042;28;20043;-49
2022/09/28 10:46:09;;;;;;;5.65;4.20;;;16.70;1.00;;;;;;5092203;28;20116;-45
2022/09/28 10:48:56;;;;;;;7.30;5.10;;;16.90;1.00;;;;;;5094414;28;20085;-50
2022/09/28 10:51:40;;;;;;;9.38;4.82;;;17.00;1.00;;;;;;5080560;28;20032;-47
2022/09/28 10:54:17;;;;;;;7.63;4.60;;;17.00;1.00;;;;;;5085618;28;20067;-46
2022/09/28 10:56:44;;;;;;;8.68;4.30;;;17.00;1.00;;;;;;5093805;28;20116;-49
2022/09/28 10:59:28;;;;;;;6.03;4.63;;;17.00;1.00;;;;;;5095016;28;20036;-51
2022/09/28 11:01:55;;;;;;;;;;;16.90;1.00;;;;;;5094347;28;20059;-47
2022/09/28 11:04:25;;;;;;;9.43;5.18;;;16.90;1.00;;;;;;5093346;28;19908;-46
2022/09/28 11:06:51;;;;;;;7.47;5.50;;;17.20;1.00;;;;;;5078061;28;20040;-51
2022/09/28 11:09:23;;;;;;;5.47;4.97;;;17.30;1.00;;;;;;5087963;28;20035;-46
2022/09/28 11:11:49;;;;;;;6.38;4.80;;;17.40;1.00;;;;;;5092335;28;20054;-49
2022/09/28 11:14:28;;;;;;;4.63;4.10;;;17.50;1.00;;;;;;5094085;28;20020;-45
2022/09/28 11:17:23;;;;;;;9.40;6.03;;;17.60;1.00;;;;;;5092842;28;20032;-47
2022/09/28 11:19:48;;;;;;;9.43;6.00;;;17.40;1.00;;;;;;5093481;28;20051;-47
2022/09/28 11:22:32;;;;;;;7.03;5.07;;;17.30;1.00;;;;;;5092502;28;20308;-48
2022/09/28 11:25:16;;;;;;;8.27;6.22;;;17.20;1.00;;;;;;5093859;28;20016;-48
2022/09/28 11:27:55;;;;;;;12.85;5.55;;;17.40;1.00;;;;;;5085727;28;20028;-50
2022/09/28 11:30:31;;;;;;;7.53;5.88;;;17.40;1.00;;;;;;5092181;28;20063;-45
2022/09/28 11:33:04;;;;;;;8.13;4.20;;;17.50;1.00;;;;;;5094165;28;20123;-46
2022/09/28 11:35:40;;;;;;;7.10;5.40;;;17.80;1.00;;;;;;5079370;28;20028;-46
2022/09/28 11:38:44;;;;;;;6.20;4.82;;;17.90;1.00;;;;;;5093920;28;20031;-47
2022/09/28 11:41:35;;;;;;;5.20;4.55;;;18.00;1.00;;;;;;5081581;28;20533;-46
2022/09/28 11:44:16;;;;;;;7.22;4.55;;;17.80;1.00;;;;;;5093571;28;20359;-46
2022/09/28 11:47:10;;;;;;;5.90;4.15;;;17.70;1.00;;;;;;5082369;28;20501;-46
2022/09/28 11:50:02;;;;;;;5.28;4.72;;;17.60;1.00;;;;;;5077021;28;20102;-48
2022/09/28 11:52:38;;;;;;;7.43;4.72;;;17.70;1.00;;;;;;5082255;28;20043;-47
2022/09/28 11:55:36;;;;;;;6.95;5.00;;;17.70;1.00;;;;;;5093545;28;20389;-46
2022/09/28 11:58:23;;;;;;;5.72;5.05;;;17.70;1.00;;;;;;5079116;28;20105;-45
2022/09/28 12:01:07;;;;;;;18.42;7.20;;;18.00;1.00;;;;;;5092328;28;20122;-46
2022/09/28 12:03:40;;;;;;;8.05;5.78;;;18.30;1.00;;;;;;5093416;28;20115;-45
2022/09/28 12:06:13;;;;;;;7.47;5.78;;;18.30;1.00;;;;;;5089246;28;20038;-45
2022/09/28 12:08:48;;;;;;;13.18;5.65;;;18.60;1.00;;;;;;5093180;28;20027;-46
2022/09/28 12:11:19;;;;;;;13.80;6.68;;;18.90;1.00;;;;;;5086880;28;20024;-48
2022/09/28 12:13:47;;;;;;;9.10;6.13;;;19.10;1.00;;;;;;5093079;28;20020;-45
2022/09/28 12:16:15;;;;;;;12.57;6.40;;;19.00;1.00;;;;;;5091642;28;20062;-46
2022/09/28 12:18:49;;;;;;;6.82;5.25;;;18.90;1.00;;;;;;5092877;28;20027;-45
2022/09/28 12:21:18;;;;;;;7.25;5.30;;;18.80;1.00;;;;;;5087857;28;20032;-46
2022/09/28 12:23:45;;;;;;;10.77;6.32;;;18.90;1.00;;;;;;5093140;28;20060;-49
2022/09/28 12:26:42;;;;;;;8.52;5.07;;;19.20;1.00;;;;;;5091088;28;20020;-46
2022/09/28 12:29:17;;;;;;;7.88;5.47;;;19.10;1.00;;;;;;5092150;28;20157;-47
2022/09/28 12:32:19;;;;;;;8.55;5.65;;;18.90;1.00;;;;;;5086207;28;20028;-45
2022/09/28 12:34:44;;;;;;;10.30;5.43;;;18.80;1.00;;;;;;5086944;28;20043;-45
2022/09/28 12:37:10;;;;;;;9.20;5.70;;;18.70;1.00;;;;;;5085586;28;20024;-50
2022/09/28 12:39:56;;;;;;;11.80;6.10;;;18.60;1.00;;;;;;5091485;28;20478;-51
2022/09/28 12:42:35;;;;;;;7.20;4.97;;;18.70;1.00;;;;;;5090176;28;20023;-49
2022/09/28 12:45:16;;;;;;;6.57;5.85;;;19.20;1.00;;;;;;5092234;28;20197;-53
2022/09/28 12:47:52;;;;;;;8.95;6.10;;;18.90;1.00;;;;;;5098846;28;20028;-47
2022/09/28 12:50:32;;;;;;;6.47;5.60;;;18.90;1.00;;;;;;5090466;28;20081;-46
2022/09/28 12:53:24;;;;;;;8.45;6.10;;;18.60;1.00;;;;;;5082956;28;20031;-51
2022/09/28 12:56:22;;;;;;;6.38;5.60;;;18.60;1.00;;;;;;5092217;28;20073;-49
2022/09/28 12:58:48;;;;;;;6.72;5.93;;;18.40;1.00;;;;;;5084970;28;20111;-49
2022/09/28 13:01:36;;;;;;;6.80;6.20;;;18.40;1.00;;;;;;5076339;28;20148;-48
2022/09/28 13:04:19;;;;;;;9.65;6.57;;;18.60;1.00;;;;;;5092294;28;20035;-47
2022/09/28 13:06:50;;;;;;;9.88;6.57;;;19.80;1.00;;;;;;5078620;28;20115;-45
2022/09/28 13:09:24;;;;;;;10.60;6.20;;;19.60;1.00;;;;;;5086260;28;20468;-45
2022/09/28 13:12:14;;;;;;;11.30;7.03;;;19.30;1.00;;;;;;5089732;28;20074;-46
2022/09/28 13:15:11;;;;;;;12.95;8.07;;;19.10;1.00;;;;;;5091693;28;20051;-50
2022/09/28 13:17:59;;;;;;;13.00;7.22;;;19.00;1.00;;;;;;5090783;28;20202;-47
2022/09/28 13:20:43;;;;;;;8.90;6.60;;;19.10;1.00;;;;;;5079900;28;20059;-47
2022/09/28 13:23:13;;;;;;;;;;;20.00;1.00;;;;;;5077792;28;20450;-46
2022/09/28 13:25:46;;;;;;;11.23;6.38;;;21.50;1.00;;;;;;5083329;28;19915;-45
2022/09/28 13:28:15;;;;;;;8.35;6.30;;;21.90;1.00;;;;;;5081435;28;20502;-46
2022/09/28 13:30:43;;;;;;;8.23;6.47;;;22.00;1.00;;;;;;5091133;28;20461;-46
2022/09/28 13:33:24;;;;;;;11.32;7.35;;;22.10;1.00;;;;;;5087153;28;20046;-46
2022/09/28 13:35:50;;;;;;;9.52;6.95;;;22.00;1.00;;;;;;5091243;28;20024;-46